createdAt,value
2023-01-13T00:03:41.026Z,4.71
2023-01-13T00:07:12.915Z,4.70
2023-01-13T00:11:19.984Z,4.65
2023-01-13T00:15:15.610Z,4.56
2023-01-13T00:19:08.692Z,4.48
2023-01-13T00:22:24.664Z,4.44
2023-01-13T00:26:10.783Z,4.40
2023-01-13T00:33:06.680Z,4.37
2023-01-13T00:36:24.634Z,4.34
2023-01-13T00:39:34.623Z,4.32
2023-01-13T00:43:18.666Z,4.31
2023-01-13T00:46:39.046Z,4.29
2023-01-13T00:50:16.676Z,4.25
2023-01-13T00:54:04.657Z,4.20
2023-01-13T01:01:02.139Z,4.14
2023-01-13T01:04:55.568Z,4.14
2023-01-13T01:08:09.867Z,4.01
2023-01-13T01:11:19.614Z,3.94
2023-01-13T01:14:37.920Z,4.00
2023-01-13T01:17:04.547Z,3.78
2023-01-13T01:19:31.239Z,3.84
2023-01-13T01:21:57.922Z,3.89
2023-01-13T01:24:24.573Z,3.90
2023-01-13T01:26:50.945Z,3.92
2023-01-13T01:29:17.506Z,3.95
2023-01-13T01:31:44.226Z,4.02
2023-01-13T01:34:36.719Z,4.11
2023-01-13T01:38:00.623Z,4.19
2023-01-13T01:41:22.635Z,4.24
2023-01-13T01:44:50.493Z,4.24
2023-01-13T01:48:10.962Z,4.20
2023-01-13T01:50:41.223Z,4.18
2023-01-13T01:53:20.055Z,4.15
2023-01-13T01:56:00.610Z,4.11
2023-01-13T01:58:44.769Z,4.06
2023-01-13T02:01:27.757Z,4.01
2023-01-13T02:04:04.503Z,3.98
2023-01-13T02:06:44.743Z,3.97
2023-01-13T02:09:13.729Z,3.93
2023-01-13T02:11:54.840Z,3.87
2023-01-13T02:15:01.047Z,3.85
2023-01-13T02:17:45.020Z,3.83
2023-01-13T02:20:39.885Z,3.82
2023-01-13T02:23:51.444Z,3.83
2023-01-13T02:26:27.954Z,3.85
2023-01-13T02:29:15.546Z,3.90
2023-01-13T02:31:46.158Z,3.95
2023-01-13T02:34:39.600Z,4.01
2023-01-13T02:37:31.704Z,4.08
2023-01-13T02:40:38.606Z,4.14
2023-01-13T02:43:54.585Z,4.20
2023-01-13T02:46:40.973Z,4.26
2023-01-13T02:49:13.383Z,4.32
2023-01-13T02:51:43.910Z,4.34
2023-01-13T02:54:17.820Z,4.32
2023-01-13T02:56:50.481Z,4.34
2023-01-13T02:59:18.795Z,4.33
2023-01-13T03:01:49.725Z,4.31
2023-01-13T03:04:54.232Z,4.31
2023-01-13T03:07:48.608Z,4.25
2023-01-13T03:10:31.250Z,4.13
2023-01-13T03:13:21.869Z,3.94
2023-01-13T03:16:18.440Z,3.73
2023-01-13T03:18:55.024Z,3.70
2023-01-13T03:21:45.199Z,3.58
2023-01-13T03:24:24.953Z,3.56
2023-01-13T03:27:00.793Z,3.52
2023-01-13T03:29:38.091Z,3.49
2023-01-13T03:32:21.628Z,3.48
2023-01-13T03:35:02.586Z,3.51
2023-01-13T03:37:35.671Z,3.55
2023-01-13T03:40:09.426Z,3.59
2023-01-13T03:42:40.557Z,3.64
2023-01-13T03:45:14.765Z,3.69
2023-01-13T03:47:49.910Z,3.71
2023-01-13T03:50:23.683Z,3.80
2023-01-13T03:52:57.560Z,3.87
2023-01-13T03:55:31.036Z,3.93
2023-01-13T03:58:07.243Z,3.96
2023-01-13T04:00:41.013Z,3.98
2023-01-13T04:03:12.827Z,4.02
2023-01-13T04:05:46.835Z,4.11
2023-01-13T04:08:23.547Z,4.22
2023-01-13T04:11:27.996Z,4.32
2023-01-13T04:14:55.704Z,4.36
2023-01-13T04:18:24.602Z,4.35
2023-01-13T04:21:58.626Z,4.30
2023-01-13T04:25:26.658Z,4.27
2023-01-13T04:28:44.606Z,4.27
2023-01-13T04:32:37.610Z,4.29
2023-01-13T04:36:26.669Z,4.29
2023-01-13T04:40:00.011Z,4.28
2023-01-13T04:43:15.810Z,4.11
2023-01-13T04:46:40.628Z,4.02
2023-01-13T04:49:58.750Z,3.94
2023-01-13T04:53:23.677Z,3.93
2023-01-13T04:56:53.585Z,3.94
2023-01-13T05:00:02.623Z,3.92
2023-01-13T05:03:45.673Z,3.91
2023-01-13T05:07:33.625Z,3.89
2023-01-13T05:11:01.685Z,3.91
2023-01-13T05:14:33.966Z,4.00
2023-01-13T05:27:26.617Z,4.39
2023-01-13T05:38:59.915Z,4.32
2023-01-13T05:42:43.684Z,4.38
2023-01-13T05:46:44.706Z,4.39
2023-01-13T05:56:35.868Z,4.30
2023-01-13T06:07:52.703Z,3.98
2023-01-13T06:23:08.689Z,3.86
2023-01-13T06:26:39.738Z,3.85
2023-01-13T06:30:15.614Z,3.88
2023-01-13T06:33:27.697Z,3.92
2023-01-13T06:36:58.624Z,3.99
2023-01-13T06:43:36.723Z,4.17
2023-01-13T06:47:04.672Z,4.25
2023-01-13T06:50:36.703Z,4.32
2023-01-13T06:54:08.654Z,4.36
2023-01-13T06:57:50.225Z,4.38
2023-01-13T07:05:03.694Z,4.49
2023-01-13T07:08:23.735Z,4.58
2023-01-13T07:15:28.363Z,4.57
2023-01-13T07:19:04.636Z,4.54
2023-01-13T07:22:46.517Z,4.57
2023-01-13T07:26:44.733Z,4.60
2023-01-13T07:30:34.740Z,4.59
2023-01-13T07:34:06.779Z,4.59
2023-01-13T07:41:21.715Z,4.61
2023-01-13T07:45:07.813Z,4.62
2023-01-13T08:02:33.741Z,4.80
2023-01-13T08:05:55.971Z,4.89
2023-01-13T08:09:26.083Z,5.02
2023-01-13T08:19:25.750Z,5.27
2023-01-13T08:23:31.391Z,5.41
2023-01-13T08:27:05.899Z,5.53
2023-01-13T08:30:32.941Z,5.67
2023-01-13T08:39:29.191Z,5.62
2023-01-13T08:41:56.152Z,5.73
2023-01-13T09:19:57.776Z,6.40
2023-01-13T09:23:20.780Z,6.48
2023-01-13T09:50:02.977Z,6.76
2023-01-13T09:53:54.218Z,6.75
2023-01-13T09:57:45.625Z,6.79
2023-01-13T10:01:03.230Z,7.12
2023-01-13T10:42:08.398Z,10.15
2023-01-13T10:53:31.546Z,9.99
2023-01-13T10:56:05.024Z,10.21
2023-01-13T10:58:31.779Z,10.22
2023-01-13T11:01:02.144Z,10.29
2023-01-13T11:03:40.878Z,10.44
2023-01-13T11:07:13.685Z,10.72
2023-01-13T11:15:16.729Z,11.18
2023-01-13T11:43:03.249Z,12.34
2023-01-13T11:46:10.707Z,12.43
2023-01-13T11:50:04.337Z,12.75
2023-01-13T11:53:20.519Z,13.27
2023-01-13T11:56:11.988Z,13.73
2023-01-13T11:59:04.115Z,14.26
2023-01-13T12:02:12.620Z,14.78
2023-01-13T12:05:58.427Z,14.92
2023-01-13T12:09:39.940Z,14.59
2023-01-13T12:16:03.309Z,14.39
2023-01-13T12:18:55.529Z,12.80
2023-01-13T12:22:12.048Z,11.72
2023-01-13T12:28:14.319Z,11.16
2023-01-13T12:30:49.940Z,10.78
2023-01-13T12:33:46.458Z,10.16
2023-01-13T12:36:49.121Z,9.72
2023-01-13T12:39:42.367Z,9.83
2023-01-13T12:42:40.180Z,9.83
2023-01-13T12:45:20.551Z,9.79
2023-01-13T12:47:48.112Z,9.97
2023-01-13T12:50:56.584Z,10.12
2023-01-13T12:58:20.798Z,9.90
2023-01-13T13:02:03.377Z,10.16
2023-01-13T13:05:28.748Z,10.89
2023-01-13T13:13:31.674Z,12.83
2023-01-13T13:16:50.013Z,12.55
2023-01-13T13:22:56.577Z,12.70
2023-01-13T13:37:42.886Z,15.02
2023-01-13T13:40:52.457Z,15.29
2023-01-13T13:43:32.715Z,15.61
2023-01-13T13:46:12.838Z,15.33
2023-01-13T13:49:11.584Z,15.49
2023-01-13T13:51:53.843Z,15.67
2023-01-13T13:54:26.136Z,15.75
2023-01-13T13:57:33.539Z,15.68
2023-01-13T14:01:06.856Z,15.70
2023-01-13T14:22:44.804Z,11.70
2023-01-13T14:25:58.817Z,10.81
2023-01-13T14:28:37.438Z,10.31
2023-01-13T14:31:23.491Z,9.79
2023-01-13T14:33:58.829Z,9.37
2023-01-13T14:36:38.754Z,9.02
2023-01-13T14:39:32.672Z,8.63
2023-01-13T14:41:59.362Z,8.28
2023-01-13T14:44:34.953Z,8.00
2023-01-13T14:47:25.071Z,7.74
2023-01-13T14:50:07.071Z,7.42
2023-01-13T14:52:59.236Z,7.15
2023-01-13T14:56:15.105Z,6.78
2023-01-13T15:04:17.011Z,6.18
2023-01-13T15:08:13.851Z,5.84
2023-01-13T15:14:07.060Z,5.44
2023-01-13T15:16:35.005Z,5.27
2023-01-13T15:19:15.973Z,5.11
2023-01-13T15:22:21.774Z,4.95
2023-01-13T15:25:23.034Z,4.80
2023-01-13T15:28:38.782Z,4.67
2023-01-13T15:31:40.711Z,4.54
2023-01-13T15:37:26.070Z,4.37
2023-01-13T15:39:54.457Z,4.29
2023-01-13T15:43:09.459Z,4.22
2023-01-13T15:45:52.134Z,4.15
2023-01-13T15:48:26.959Z,4.08
2023-01-13T15:51:11.138Z,4.01
2023-01-13T15:53:40.349Z,3.96
2023-01-13T15:56:23.081Z,3.89
2023-01-13T15:58:51.827Z,3.86
2023-01-13T16:01:21.350Z,3.84
2023-01-13T16:04:44.589Z,3.83
2023-01-13T16:07:32.272Z,3.82
2023-01-13T16:10:02.863Z,3.83
2023-01-13T16:12:47.548Z,3.82
2023-01-13T16:15:41.851Z,3.81
2023-01-13T16:18:24.364Z,3.80
2023-01-13T16:20:58.401Z,3.79
2023-01-13T16:23:32.744Z,3.79
2023-01-13T16:26:05.065Z,3.79
2023-01-13T16:28:39.653Z,3.79
2023-01-13T16:31:31.349Z,3.78
2023-01-13T16:34:00.336Z,3.75
2023-01-13T16:36:28.619Z,3.72
2023-01-13T16:38:56.912Z,3.67
2023-01-13T16:41:24.560Z,3.62
2023-01-13T16:43:51.787Z,3.57
2023-01-13T16:46:25.593Z,3.51
2023-01-13T16:48:54.422Z,3.45
2023-01-13T16:51:22.224Z,3.40
2023-01-13T16:53:49.971Z,3.35
2023-01-13T16:56:22.016Z,3.31
2023-01-13T16:58:49.393Z,3.26
2023-01-13T17:01:20.648Z,3.21
2023-01-13T17:03:48.845Z,3.17
2023-01-13T17:06:16.670Z,3.11
2023-01-13T17:09:08.954Z,3.05
2023-01-13T17:16:09.360Z,2.91
2023-01-13T17:23:13.817Z,2.87
2023-01-13T17:26:58.383Z,2.81
2023-01-13T17:30:27.991Z,2.84
2023-01-13T17:33:46.465Z,2.86
2023-01-13T17:40:40.798Z,2.92
2023-01-13T17:43:44.463Z,2.94
2023-01-13T17:47:30.941Z,2.97
2023-01-13T17:51:03.608Z,3.02
2023-01-13T17:54:27.600Z,3.06
2023-01-13T17:57:45.805Z,3.07
2023-01-13T18:01:21.612Z,3.04
2023-01-13T18:04:48.429Z,2.99
2023-01-13T18:12:20.456Z,2.79
2023-01-13T18:15:56.803Z,2.66
2023-01-13T18:19:18.443Z,2.57
2023-01-13T18:22:57.498Z,2.49
2023-01-13T18:26:54.938Z,2.39
2023-01-13T18:30:56.756Z,2.32
2023-01-13T18:34:48.032Z,2.22
2023-01-13T18:42:34.453Z,2.09
2023-01-13T18:50:35.786Z,2.01
2023-01-13T18:54:23.510Z,1.99
2023-01-13T18:57:41.411Z,1.99
2023-01-13T19:01:01.500Z,2.02
2023-01-13T19:05:08.242Z,2.04
2023-01-13T19:16:10.447Z,2.16
2023-01-13T19:19:39.504Z,2.25
2023-01-13T19:23:08.427Z,2.30
2023-01-13T19:26:45.881Z,2.28
2023-01-13T19:29:15.182Z,2.24
2023-01-13T19:32:43.013Z,2.12
2023-01-13T19:36:11.233Z,1.95
2023-01-13T19:39:57.432Z,1.83
2023-01-13T19:43:05.015Z,1.77
2023-01-13T19:46:04.811Z,1.73
2023-01-13T19:49:30.440Z,1.67
2023-01-13T19:52:52.602Z,1.61
2023-01-13T19:55:56.058Z,1.56
2023-01-13T19:59:24.753Z,1.50
2023-01-13T20:06:23.640Z,1.34
2023-01-13T20:09:17.357Z,1.29
2023-01-13T20:12:14.141Z,1.24
2023-01-13T20:15:25.396Z,1.24
2023-01-13T20:18:28.723Z,1.23
2023-01-13T20:21:38.129Z,1.24
2023-01-13T20:24:52.480Z,1.28
2023-01-13T20:28:21.377Z,1.36
2023-01-13T20:31:38.669Z,1.42
2023-01-13T20:34:43.560Z,1.43
2023-01-13T20:37:30.250Z,1.48
2023-01-13T20:40:38.460Z,1.54
2023-01-13T20:44:06.901Z,1.60
2023-01-13T20:47:24.363Z,1.65
2023-01-13T20:50:41.480Z,1.68
2023-01-13T20:54:11.270Z,1.63
2023-01-13T20:57:30.651Z,1.53
2023-01-13T21:00:30.794Z,1.47
2023-01-13T21:03:46.709Z,1.42
2023-01-13T21:06:56.262Z,1.35
2023-01-13T21:09:52.289Z,1.29
2023-01-13T21:12:50.847Z,1.21
2023-01-13T21:15:49.578Z,1.12
2023-01-13T21:18:51.229Z,1.02
2023-01-13T21:22:00.877Z,0.94
2023-01-13T21:25:39.353Z,0.87
2023-01-13T21:28:48.786Z,0.82
2023-01-13T21:32:19.264Z,0.77
2023-01-13T21:35:47.642Z,0.70
2023-01-13T21:39:33.402Z,0.63
2023-01-13T21:42:53.279Z,0.59
2023-01-13T21:46:42.531Z,0.57
2023-01-13T21:50:25.553Z,0.56
2023-01-13T21:54:07.701Z,0.59
2023-01-13T21:57:39.453Z,0.63
2023-01-13T22:02:23.213Z,0.71
2023-01-13T22:05:07.749Z,0.78
2023-01-13T22:07:39.002Z,0.82
2023-01-13T22:10:39.110Z,0.91
2023-01-13T22:13:44.631Z,0.99
2023-01-13T22:16:23.615Z,1.00
2023-01-13T22:19:28.629Z,0.99
2023-01-13T22:22:19.286Z,0.98
2023-01-13T22:25:24.056Z,0.91
2023-01-13T22:28:34.726Z,0.87
2023-01-13T22:31:49.425Z,0.80
2023-01-13T22:35:00.105Z,0.70
2023-01-13T22:37:32.154Z,0.61
2023-01-13T22:40:29.970Z,0.56
2023-01-13T22:43:38.159Z,0.46
2023-01-13T22:46:29.443Z,0.33
2023-01-13T22:49:19.126Z,0.26
2023-01-13T23:00:39.259Z,-0.06
2023-01-13T23:03:13.951Z,-0.08
2023-01-13T23:06:02.793Z,-0.10
2023-01-13T23:08:40.852Z,-0.08
2023-01-13T23:11:49.364Z,-0.06
2023-01-13T23:14:57.790Z,-0.03
2023-01-13T23:17:47.549Z,0.01
2023-01-13T23:20:25.794Z,0.06
2023-01-13T23:23:33.865Z,0.12
2023-01-13T23:26:21.812Z,0.20
2023-01-13T23:29:26.472Z,0.29
2023-01-13T23:32:15.295Z,0.40
2023-01-13T23:34:47.559Z,0.52
2023-01-13T23:37:36.663Z,0.59
2023-01-13T23:40:14.165Z,0.69
2023-01-13T23:43:21.076Z,0.78
2023-01-13T23:46:15.503Z,0.88
2023-01-13T23:49:00.209Z,0.89
2023-01-13T23:52:09.598Z,0.89
2023-01-13T23:54:42.529Z,0.89
2023-01-13T23:57:45.420Z,0.88
